createdAt,value
2023-04-15T04:01:26.552Z,90008.03
2023-04-15T04:04:11.326Z,90004.16
2023-04-15T04:06:56.200Z,90005.66
2023-04-15T04:09:41.271Z,90006.19
2023-04-15T04:12:26.177Z,90003.03
2023-04-15T04:15:10.821Z,90001.59
2023-04-15T04:17:55.955Z,90007.53
2023-04-15T04:20:40.646Z,90013.72
2023-04-15T04:23:25.618Z,90011.38
2023-04-15T04:26:10.585Z,90013.75
2023-04-15T04:28:55.583Z,90017.81
2023-04-15T04:31:40.529Z,90008.06
2023-04-15T04:34:25.322Z,90013.09
2023-04-15T04:37:10.224Z,90009.03
2023-04-15T04:39:55.056Z,90007.06
2023-04-15T04:42:40.303Z,90013.25
2023-04-15T04:45:25.048Z,90014.19
2023-04-15T04:48:09.968Z,90014.72
2023-04-15T04:50:54.760Z,90008.75
2023-04-15T04:53:39.670Z,90004.72
2023-04-15T04:56:24.450Z,90009.69
2023-04-15T04:59:09.326Z,90014.69
2023-04-15T05:01:54.357Z,90012.34
2023-04-15T05:04:39.171Z,90013.03
2023-04-15T05:07:24.171Z,90008.56
2023-04-15T05:10:09.013Z,90012.63
2023-04-15T05:12:53.991Z,90010.66
2023-04-15T05:15:38.840Z,90015.50
2023-04-15T05:18:23.639Z,90002.03
2023-04-15T05:21:08.454Z,90007.00
2023-04-15T05:23:53.290Z,90006.25
2023-04-15T05:26:38.140Z,90015.06
2023-04-15T05:29:23.129Z,90016.16
2023-04-15T05:32:08.146Z,90024.41
2023-04-15T05:34:52.953Z,90020.59
2023-04-15T05:37:37.822Z,90021.47
2023-04-15T05:40:22.660Z,90025.69
2023-04-15T05:43:07.654Z,90025.78
2023-04-15T05:45:52.542Z,90027.47
2023-04-15T05:48:37.474Z,90028.69
2023-04-15T05:51:22.433Z,90027.84
2023-04-15T05:54:07.304Z,90020.56
2023-04-15T05:56:52.140Z,90033.13
2023-04-15T05:59:36.944Z,90029.72
2023-04-15T06:02:21.937Z,90032.63
2023-04-15T06:05:06.809Z,90033.91
2023-04-15T06:07:51.669Z,90024.44
2023-04-15T06:10:36.478Z,90016.44
2023-04-15T06:13:21.383Z,90021.91
2023-04-15T06:16:06.245Z,90013.69
2023-04-15T06:18:51.082Z,90012.09
2023-04-15T06:21:36.032Z,90007.38
2023-04-15T06:24:20.840Z,90007.13
2023-04-15T06:27:05.892Z,90009.31
2023-04-15T06:29:50.625Z,90002.88
2023-04-15T06:32:35.753Z,89990.28
2023-04-15T06:35:20.580Z,89988.16
2023-04-15T06:38:05.575Z,89985.06
2023-04-15T06:40:50.626Z,89994.34
2023-04-15T06:43:35.501Z,89982.88
2023-04-15T06:46:20.585Z,89988.94
2023-04-15T06:49:05.264Z,89993.47
2023-04-15T06:51:50.166Z,89988.31
2023-04-15T06:54:34.938Z,89988.38
2023-04-15T06:57:20.123Z,89988.66
2023-04-15T07:00:05.017Z,89991.00
2023-04-15T07:02:49.958Z,90002.47
2023-04-15T07:05:34.691Z,89987.97
2023-04-15T07:08:19.448Z,89991.06
2023-04-15T07:11:04.408Z,89984.09
2023-04-15T07:13:49.277Z,89979.13
2023-04-15T07:16:34.215Z,89980.25
2023-04-15T07:19:19.015Z,89979.03
2023-04-15T07:22:03.799Z,89986.78
2023-04-15T07:24:48.706Z,89981.28
2023-04-15T07:27:33.640Z,89983.69
2023-04-15T07:30:18.491Z,89983.97
2023-04-15T07:33:03.241Z,89976.56
2023-04-15T07:35:48.050Z,89984.06
2023-04-15T07:38:32.928Z,89985.69
2023-04-15T07:41:18.018Z,89983.78
2023-04-15T07:44:02.964Z,89985.97
2023-04-15T07:46:47.866Z,89985.03
2023-04-15T07:49:32.729Z,89976.47
2023-04-15T07:52:17.593Z,89980.06
2023-04-15T07:55:02.345Z,89983.31
2023-04-15T07:57:47.431Z,89987.50
2023-04-15T08:00:32.469Z,89978.34
2023-04-15T08:03:17.391Z,89982.63
2023-04-15T08:06:02.352Z,89988.31
2023-04-15T08:08:47.159Z,89981.59
2023-04-15T08:11:32.240Z,89984.34
2023-04-15T08:14:17.091Z,89984.66
2023-04-15T08:17:01.933Z,89999.66
2023-04-15T08:19:46.857Z,89996.22
2023-04-15T08:22:31.787Z,89992.44
2023-04-15T08:25:16.664Z,89997.38
2023-04-15T08:28:01.467Z,90001.78
2023-04-15T08:30:46.513Z,90004.81
2023-04-15T08:33:31.359Z,90000.44
2023-04-15T08:36:16.218Z,90010.28
2023-04-15T08:39:01.328Z,90013.78
2023-04-15T08:41:46.490Z,90018.56
2023-04-15T08:44:31.329Z,90025.47
2023-04-15T08:47:16.280Z,90028.47
2023-04-15T08:50:01.319Z,90038.34
2023-04-15T08:52:46.097Z,90041.06
2023-04-15T08:55:30.990Z,90044.41
2023-04-15T08:58:15.911Z,90045.56
2023-04-15T09:01:00.694Z,90049.63
2023-04-15T09:03:45.537Z,90053.47
2023-04-15T09:06:30.391Z,90055.59
2023-04-15T09:09:15.320Z,90057.78
2023-04-15T09:12:00.335Z,90054.75
2023-04-15T09:14:45.134Z,90053.66
2023-04-15T09:17:29.988Z,90074.63
2023-04-15T09:20:14.909Z,90069.47
2023-04-15T09:22:59.694Z,90076.75
2023-04-15T09:25:44.553Z,90073.03
2023-04-15T09:28:29.402Z,90071.84
2023-04-15T09:31:14.362Z,90079.72
2023-04-15T09:33:59.274Z,90080.72
2023-04-15T09:36:44.051Z,90079.78
2023-04-15T09:39:28.832Z,90084.75
2023-04-15T09:42:13.660Z,90084.31
2023-04-15T09:44:58.621Z,90076.56
2023-04-15T09:47:43.620Z,90073.97
2023-04-15T09:50:28.476Z,90084.97
2023-04-15T09:53:13.362Z,90085.47
2023-04-15T09:55:58.540Z,90083.56
2023-04-15T09:58:43.328Z,90075.94
2023-04-15T10:01:28.326Z,90089.28
2023-04-15T10:04:13.378Z,90075.69
2023-04-15T10:06:58.179Z,90085.69
2023-04-15T10:09:43.083Z,90089.72
2023-04-15T10:12:27.950Z,90079.03
2023-04-15T10:15:12.845Z,90088.44
2023-04-15T10:17:57.705Z,90088.13
2023-04-15T10:20:42.578Z,90102.41
2023-04-15T10:23:27.497Z,90087.84
2023-04-15T10:26:12.441Z,90093.78
2023-04-15T10:28:58.412Z,90089.28
2023-04-15T10:31:44.099Z,90093.81
2023-04-15T10:34:29.061Z,90094.69
2023-04-15T10:37:13.942Z,90094.03
2023-04-15T10:39:58.889Z,90093.81
2023-04-15T10:42:43.687Z,90100.69
2023-04-15T10:45:28.634Z,90098.63
2023-04-15T10:48:13.537Z,90091.75
2023-04-15T10:50:58.408Z,90098.44
2023-04-15T10:53:43.416Z,90108.03
2023-04-15T10:56:28.249Z,90104.22
2023-04-15T10:59:13.189Z,90098.88
2023-04-15T11:01:58.078Z,90117.19
2023-04-15T11:04:43.203Z,90107.38
2023-04-15T11:07:27.868Z,90105.44
2023-04-15T11:10:12.842Z,90118.81
2023-04-15T11:12:57.620Z,90118.03
2023-04-15T11:15:42.388Z,90116.75
2023-04-15T11:18:27.240Z,90111.34
2023-04-15T11:21:12.128Z,90118.13
2023-04-15T11:23:57.101Z,90115.50
2023-04-15T11:26:41.990Z,90117.97
2023-04-15T11:29:26.975Z,90121.59
2023-04-15T11:32:11.986Z,90116.13
2023-04-15T11:34:56.844Z,90117.63
2023-04-15T11:37:41.703Z,90132.00
2023-04-15T11:40:26.441Z,90128.84
2023-04-15T11:43:11.397Z,90137.19
2023-04-15T11:45:56.313Z,90137.94
2023-04-15T11:48:41.186Z,90131.72
2023-04-15T11:51:26.035Z,90131.38
2023-04-15T11:54:10.978Z,90133.91
2023-04-15T11:56:55.791Z,90133.56
2023-04-15T11:59:45.318Z,90135.72
2023-04-15T12:02:30.966Z,90136.06
2023-04-15T12:05:15.859Z,90145.81
2023-04-15T12:08:00.607Z,90162.84
2023-04-15T12:10:45.493Z,90166.94
2023-04-15T12:13:30.249Z,90160.34
2023-04-15T12:16:15.286Z,90173.09
2023-04-15T12:19:00.065Z,90180.38
2023-04-15T12:21:44.923Z,90178.88
2023-04-15T12:24:29.784Z,90181.97
2023-04-15T12:27:14.644Z,90188.13
2023-04-15T12:29:59.429Z,90184.00
2023-04-15T12:32:44.375Z,90201.81
2023-04-15T12:35:29.148Z,90199.25
2023-04-15T12:38:14.042Z,90204.38
2023-04-15T12:40:58.989Z,90223.91
2023-04-15T12:43:43.880Z,90214.75
2023-04-15T12:46:28.787Z,90233.78
2023-04-15T12:49:13.693Z,90230.09
2023-04-15T12:51:58.670Z,90232.09
2023-04-15T12:54:43.450Z,90235.53
2023-04-15T12:57:28.497Z,90239.13
2023-04-15T13:00:13.262Z,90232.25
2023-04-15T13:02:58.160Z,90243.84
2023-04-15T13:05:43.168Z,90250.16
2023-04-15T13:08:29.215Z,90251.84
2023-04-15T13:11:13.884Z,90249.72
2023-04-15T13:13:58.594Z,90244.66
2023-04-15T13:16:43.464Z,90255.22
2023-04-15T13:19:28.232Z,90250.81
2023-04-15T13:22:13.170Z,90248.97
2023-04-15T13:24:57.929Z,90258.75
2023-04-15T13:27:42.707Z,90253.38
2023-04-15T13:30:27.788Z,90252.47
2023-04-15T13:33:12.628Z,90256.97
2023-04-15T13:35:57.558Z,90254.47
2023-04-15T13:38:42.572Z,90263.91
2023-04-15T13:41:27.370Z,90256.38
2023-04-15T13:44:12.325Z,90255.41
2023-04-15T13:46:57.352Z,90258.03
2023-04-15T13:49:42.274Z,90273.84
2023-04-15T13:52:26.987Z,90270.91
2023-04-15T13:55:19.715Z,90278.69
2023-04-15T13:58:05.401Z,90280.59
2023-04-15T14:00:50.191Z,90288.19
2023-04-15T14:03:35.033Z,90287.16
2023-04-15T14:06:19.751Z,90285.97
2023-04-15T14:09:04.841Z,90294.69
2023-04-15T14:11:50.000Z,90293.88
2023-04-15T14:14:34.753Z,90295.81
2023-04-15T14:17:19.606Z,90302.44
2023-04-15T14:20:04.565Z,90296.53
2023-04-15T14:22:49.484Z,90294.16
2023-04-15T14:25:34.432Z,90299.75
2023-04-15T14:28:19.315Z,90308.00
2023-04-15T14:31:04.203Z,90303.59
2023-04-15T14:33:49.011Z,90307.09
2023-04-15T14:36:33.820Z,90309.25
2023-04-15T14:39:18.683Z,90310.63
2023-04-15T14:42:03.499Z,90315.56
2023-04-15T14:44:48.301Z,90328.41
2023-04-15T14:47:33.386Z,90323.31
2023-04-15T14:50:18.372Z,90333.09
2023-04-15T14:53:03.225Z,90338.81
2023-04-15T14:55:47.973Z,90345.31
2023-04-15T14:58:32.792Z,90345.69
2023-04-15T15:01:17.677Z,90352.91
2023-04-15T15:04:02.419Z,90356.59
2023-04-15T15:06:49.044Z,90364.06
2023-04-15T15:09:35.028Z,90359.94
2023-04-15T15:12:20.268Z,90364.16
2023-04-15T15:15:12.227Z,90362.72
2023-04-15T15:18:00.629Z,90380.53
2023-04-15T15:20:45.297Z,90378.72
2023-04-15T15:23:30.434Z,90381.53
2023-04-15T15:26:15.172Z,90383.97
2023-04-15T15:29:00.057Z,90379.31
2023-04-15T15:31:44.921Z,90390.13
2023-04-15T15:34:29.746Z,90387.34
2023-04-15T15:37:14.443Z,90382.75
2023-04-15T15:39:59.490Z,90386.28
2023-04-15T15:42:44.271Z,90381.22
2023-04-15T15:45:29.062Z,90382.19
2023-04-15T15:48:13.898Z,90401.13
2023-04-15T15:50:58.746Z,90400.28
2023-04-15T15:53:43.813Z,90406.72
2023-04-15T15:56:28.585Z,90418.38
2023-04-15T15:59:13.621Z,90412.28
2023-04-15T16:01:58.624Z,90416.13
2023-04-15T16:04:43.333Z,90426.53
2023-04-15T16:07:28.291Z,90428.81
2023-04-15T16:10:13.288Z,90427.94
2023-04-15T16:12:58.234Z,90432.16
2023-04-15T16:15:43.091Z,90430.09
2023-04-15T16:18:27.997Z,90432.31
2023-04-15T16:21:12.752Z,90427.78
2023-04-15T16:23:58.216Z,90434.94
2023-04-15T16:26:42.935Z,90431.34
2023-04-15T16:29:27.819Z,90442.84
2023-04-15T16:32:12.728Z,90444.97
2023-04-15T16:34:57.507Z,90449.03
2023-04-15T16:37:42.457Z,90445.94
2023-04-15T16:40:27.256Z,90437.81
2023-04-15T16:43:12.114Z,90451.47
2023-04-15T16:45:56.979Z,90458.13
2023-04-15T16:48:41.973Z,90453.13
2023-04-15T16:51:26.986Z,90467.97
2023-04-15T16:54:11.911Z,90468.44
2023-04-15T16:56:56.870Z,90479.94
2023-04-15T16:59:41.865Z,90476.81
2023-04-15T17:02:26.867Z,90490.69
2023-04-15T17:05:11.570Z,90482.81
2023-04-15T17:07:56.568Z,90488.78
2023-04-15T17:10:41.406Z,90498.88
2023-04-15T17:13:26.383Z,90505.34
2023-04-15T17:16:11.210Z,90507.41
2023-04-15T17:18:56.232Z,90518.97
2023-04-15T17:21:41.163Z,90521.41
2023-04-15T17:24:26.122Z,90525.59
2023-04-15T17:27:11.060Z,90523.72
2023-04-15T17:29:56.036Z,90533.66
2023-04-15T17:32:41.166Z,90536.84
2023-04-15T17:35:25.844Z,90546.66
2023-04-15T17:38:10.609Z,90552.69
2023-04-15T17:40:55.372Z,90552.41
2023-04-15T17:43:40.254Z,90560.94
2023-04-15T17:46:25.197Z,90566.13
2023-04-15T17:49:10.008Z,90563.44
2023-04-15T17:51:54.977Z,90566.13
2023-04-15T17:54:39.966Z,90577.09
2023-04-15T17:57:24.994Z,90582.69
2023-04-15T18:00:09.791Z,90591.59
2023-04-15T18:02:55.065Z,90598.28
2023-04-15T18:05:42.060Z,90608.97
2023-04-15T18:08:27.544Z,90612.69
2023-04-15T18:11:12.491Z,90619.13
2023-04-15T18:13:57.332Z,90621.31
2023-04-15T18:16:42.354Z,90623.78
2023-04-15T18:19:27.093Z,90627.03
2023-04-15T18:22:11.965Z,90633.84
2023-04-15T18:24:56.751Z,90631.41
2023-04-15T18:27:41.689Z,90641.66
2023-04-15T18:30:26.511Z,90648.84
2023-04-15T18:33:11.419Z,90656.25
2023-04-15T18:35:56.403Z,90662.13
2023-04-15T18:38:41.259Z,90668.75
2023-04-15T18:41:26.305Z,90671.97
2023-04-15T18:44:11.208Z,90683.72
2023-04-15T18:46:56.071Z,90686.88
2023-04-15T18:49:40.985Z,90694.41
2023-04-15T18:52:25.901Z,90706.53
2023-04-15T18:55:10.738Z,90701.28
2023-04-15T18:57:56.683Z,90696.75
2023-04-15T19:00:41.821Z,90699.59
2023-04-15T19:03:26.589Z,90717.59
2023-04-15T19:06:11.330Z,90722.69
2023-04-15T19:08:56.170Z,90724.41
2023-04-15T19:11:41.020Z,90728.94
2023-04-15T19:14:25.820Z,90729.44
2023-04-15T19:17:10.571Z,90720.22
2023-04-15T19:19:55.546Z,90728.63
2023-04-15T19:22:40.382Z,90730.53
2023-04-15T19:25:25.326Z,90739.50
2023-04-15T19:28:10.083Z,90747.13
2023-04-15T19:30:55.026Z,90751.44
2023-04-15T19:33:39.786Z,90752.38
2023-04-15T19:36:24.733Z,90762.59
2023-04-15T19:39:09.571Z,90762.53
2023-04-15T19:41:55.262Z,90770.44
2023-04-15T19:44:40.406Z,90776.94
2023-04-15T19:47:25.311Z,90791.13
2023-04-15T19:50:10.237Z,90806.16
2023-04-15T19:52:55.093Z,90811.16
2023-04-15T19:55:40.071Z,90825.63
2023-04-15T19:58:24.936Z,90842.22
2023-04-15T20:01:09.869Z,90849.63
2023-04-15T20:03:54.902Z,90845.06
2023-04-15T20:06:40.154Z,90842.38
2023-04-15T20:09:25.144Z,90825.91
2023-04-15T20:12:50.151Z,90818.66
2023-04-15T20:15:14.485Z,90827.38
2023-04-15T20:17:59.427Z,90839.53
2023-04-15T20:20:44.388Z,90834.38
2023-04-15T20:23:29.336Z,90836.81
2023-04-15T20:26:14.075Z,90854.25
2023-04-15T20:28:59.100Z,90854.28
2023-04-15T20:31:44.054Z,90844.69
2023-04-15T20:34:28.817Z,90843.06
2023-04-15T20:37:13.591Z,90840.28
2023-04-15T20:39:58.551Z,90855.81
2023-04-15T20:42:43.525Z,90849.03
2023-04-15T20:45:28.355Z,90847.84
2023-04-15T20:48:13.458Z,90842.84
2023-04-15T20:50:58.309Z,90839.00
2023-04-15T20:53:43.339Z,90836.50
2023-04-15T20:56:28.175Z,90848.75
2023-04-15T20:59:13.137Z,90861.63
